createdAt,value
2018-04-18T00:01:09.333Z,17.60
2018-04-18T00:04:19.188Z,19.00
2018-04-18T00:07:28.633Z,18.40
2018-04-18T00:10:38.860Z,20.27
2018-04-18T00:13:49.143Z,18.20
2018-04-18T00:16:59.224Z,17.87
2018-04-18T00:20:09.800Z,17.43
2018-04-18T00:23:19.275Z,18.50
2018-04-18T00:26:28.740Z,17.80
2018-04-18T00:29:38.983Z,19.53
2018-04-18T00:32:49.939Z,19.90
2018-04-18T00:36:00.103Z,20.83
2018-04-18T00:39:10.497Z,21.13
2018-04-18T00:42:19.925Z,21.03
2018-04-18T00:45:30.316Z,21.77
2018-04-18T00:48:39.784Z,20.87
2018-04-18T00:51:49.708Z,19.53
2018-04-18T00:54:59.763Z,21.20
2018-04-18T00:58:11.088Z,21.90
2018-04-18T01:01:20.723Z,23.23
2018-04-18T01:04:30.991Z,22.07
2018-04-18T01:07:41.256Z,20.80
2018-04-18T01:10:51.374Z,21.73
2018-04-18T01:14:02.404Z,22.97
2018-04-18T01:17:12.260Z,23.80
2018-04-18T01:20:22.180Z,23.67
2018-04-18T01:23:32.360Z,25.67
2018-04-18T01:26:42.352Z,26.87
2018-04-18T01:29:52.244Z,24.90
2018-04-18T01:33:01.580Z,22.77
2018-04-18T01:36:11.743Z,22.77
2018-04-18T01:39:21.595Z,22.87
2018-04-18T01:42:31.067Z,28.00
2018-04-18T01:45:41.328Z,27.20
2018-04-18T01:48:51.509Z,26.27
2018-04-18T01:52:00.828Z,26.47
2018-04-18T01:55:10.736Z,23.90
2018-04-18T01:58:20.232Z,25.13
2018-04-18T02:01:29.794Z,25.63
2018-04-18T02:04:39.748Z,23.10
2018-04-18T02:07:49.113Z,22.33
2018-04-18T02:10:58.544Z,25.30
2018-04-18T02:14:08.750Z,27.33
2018-04-18T02:17:18.608Z,26.87
2018-04-18T02:20:28.057Z,26.20
2018-04-18T02:23:38.403Z,25.43
2018-04-18T02:26:49.375Z,26.40
2018-04-18T02:29:59.788Z,22.87
2018-04-18T02:33:10.107Z,23.10
2018-04-18T02:36:19.959Z,22.10
2018-04-18T02:39:29.380Z,24.07
2018-04-18T02:42:39.104Z,28.73
2018-04-18T02:45:48.918Z,27.47
2018-04-18T02:48:59.227Z,23.07
2018-04-18T02:52:08.608Z,27.17
2018-04-18T02:55:18.832Z,23.40
2018-04-18T02:58:28.318Z,28.43
2018-04-18T03:01:38.543Z,28.47
2018-04-18T03:04:48.255Z,30.73
2018-04-18T03:07:58.541Z,26.87
2018-04-18T03:11:07.808Z,28.47
2018-04-18T03:14:17.789Z,26.30
2018-04-18T03:17:27.644Z,26.47
2018-04-18T03:20:37.063Z,24.53
2018-04-18T03:23:46.546Z,27.47
2018-04-18T03:26:55.956Z,28.13
2018-04-18T03:30:06.257Z,27.63
2018-04-18T03:33:19.767Z,33.43
2018-04-18T03:36:29.170Z,36.40
2018-04-18T03:39:39.028Z,37.90
2018-04-18T03:42:48.596Z,35.37
2018-04-18T03:45:59.566Z,35.00
2018-04-18T03:49:09.800Z,36.83
2018-04-18T03:52:20.935Z,39.83
2018-04-18T03:55:30.320Z,32.13
2018-04-18T03:58:40.615Z,36.97
2018-04-18T04:01:50.519Z,30.27
2018-04-18T04:05:00.531Z,43.60
2018-04-18T04:08:10.870Z,31.67
2018-04-18T04:11:21.472Z,40.50
2018-04-18T04:14:30.899Z,38.10
2018-04-18T04:17:58.304Z,34.50
2018-04-18T04:21:26.039Z,32.27
2018-04-18T04:24:41.797Z,28.90
2018-04-18T04:27:51.398Z,38.90
2018-04-18T04:31:01.919Z,32.07
2018-04-18T04:34:16.269Z,27.40
2018-04-18T04:37:25.912Z,29.63
2018-04-18T04:40:36.082Z,29.27
2018-04-18T04:43:46.174Z,34.60
2018-04-18T04:46:56.075Z,29.07
2018-04-18T04:50:07.259Z,30.70
2018-04-18T04:53:17.067Z,35.63
2018-04-18T04:56:27.013Z,35.17
2018-04-18T04:59:36.281Z,34.47
2018-04-18T05:02:46.071Z,33.37
2018-04-18T05:05:55.561Z,31.13
2018-04-18T05:09:06.980Z,31.67
2018-04-18T05:12:16.950Z,34.37
2018-04-18T05:15:26.304Z,34.70
2018-04-18T05:18:36.336Z,32.23
2018-04-18T05:21:46.276Z,31.53
2018-04-18T05:24:55.735Z,27.73
2018-04-18T05:28:06.319Z,33.50
2018-04-18T05:31:15.915Z,41.90
2018-04-18T05:34:26.765Z,31.13
2018-04-18T05:37:36.171Z,35.80
2018-04-18T05:40:46.159Z,37.13
2018-04-18T05:43:59.700Z,32.53
2018-04-18T05:47:09.202Z,40.17
2018-04-18T05:50:18.783Z,39.13
2018-04-18T05:53:29.012Z,39.87
2018-04-18T05:56:39.288Z,38.83
2018-04-18T05:59:48.759Z,38.37
2018-04-18T06:02:58.815Z,38.10
2018-04-18T06:06:09.043Z,38.17
2018-04-18T06:09:18.969Z,40.20
2018-04-18T06:12:31.005Z,38.30
2018-04-18T06:15:42.269Z,38.63
2018-04-18T06:18:56.383Z,38.47
2018-04-18T06:22:07.470Z,36.63
2018-04-18T06:25:17.604Z,37.53
2018-04-18T06:28:27.455Z,38.87
2018-04-18T06:31:37.456Z,35.00
2018-04-18T06:34:47.559Z,37.17
2018-04-18T06:37:57.712Z,37.40
2018-04-18T06:41:07.917Z,38.17
2018-04-18T06:44:17.275Z,37.53
2018-04-18T06:47:26.859Z,36.30
2018-04-18T06:50:36.478Z,38.30
2018-04-18T06:53:47.022Z,36.53
2018-04-18T06:56:56.891Z,36.37
2018-04-18T07:00:07.111Z,35.97
2018-04-18T07:03:16.553Z,34.30
2018-04-18T07:06:26.039Z,34.70
2018-04-18T07:09:36.400Z,34.60
2018-04-18T07:12:45.740Z,34.20
2018-04-18T07:15:55.579Z,34.10
2018-04-18T07:19:09.614Z,34.50
2018-04-18T07:22:20.368Z,32.20
2018-04-18T07:25:30.652Z,31.80
2018-04-18T07:28:39.986Z,31.63
2018-04-18T07:31:49.588Z,32.03
2018-04-18T07:34:59.094Z,30.73
2018-04-18T07:38:08.490Z,31.03
2018-04-18T07:41:18.783Z,30.87
2018-04-18T07:44:28.215Z,31.57
2018-04-18T07:47:38.436Z,29.10
2018-04-18T07:50:47.744Z,28.90
2018-04-18T07:53:57.582Z,28.33
2018-04-18T07:57:07.963Z,28.67
2018-04-18T08:00:17.637Z,27.53
2018-04-18T08:03:26.911Z,28.70
2018-04-18T08:06:36.663Z,26.60
2018-04-18T08:09:46.744Z,27.98
2018-04-18T08:12:56.716Z,27.43
2018-04-18T08:16:07.016Z,22.77
2018-04-18T08:19:17.143Z,23.13
2018-04-18T08:22:26.443Z,23.23
2018-04-18T08:25:36.225Z,22.62
2018-04-18T08:28:45.643Z,21.40
2018-04-18T08:31:55.828Z,22.70
2018-04-18T08:35:05.372Z,21.90
2018-04-18T08:38:14.746Z,21.25
2018-04-18T08:41:24.843Z,18.90
2018-04-18T08:44:34.180Z,19.27
2018-04-18T08:47:43.643Z,16.77
2018-04-18T08:50:57.760Z,14.25
2018-04-18T08:54:07.149Z,15.88
2018-04-18T08:57:16.475Z,9.35
2018-04-18T09:00:26.723Z,12.18
2018-04-18T09:03:36.028Z,12.32
2018-04-18T09:06:45.428Z,10.57
2018-04-18T09:09:55.656Z,11.73
2018-04-18T09:13:04.965Z,7.15
2018-04-18T09:16:14.407Z,8.65
2018-04-18T09:19:23.776Z,10.35
2018-04-18T09:22:34.026Z,10.55
2018-04-18T09:25:43.491Z,7.72
2018-04-18T09:28:52.836Z,9.30
2018-04-18T09:32:02.325Z,8.88
2018-04-18T09:35:12.242Z,6.55
2018-04-18T09:38:21.967Z,6.20
2018-04-18T09:41:31.843Z,5.35
2018-04-18T09:44:41.667Z,6.72
2018-04-18T09:47:51.432Z,6.32
2018-04-18T09:51:01.191Z,5.55
2018-04-18T09:54:11.266Z,4.70
2018-04-18T09:57:22.036Z,6.55
2018-04-18T10:00:37.644Z,9.68
2018-04-18T10:03:52.628Z,7.80
2018-04-18T10:07:02.900Z,7.65
2018-04-18T10:10:12.392Z,5.53
2018-04-18T10:13:22.735Z,7.00
2018-04-18T10:16:32.193Z,5.18
2018-04-18T10:19:41.629Z,4.90
2018-04-18T10:22:51.018Z,5.72
2018-04-18T10:26:00.323Z,8.10
2018-04-18T10:29:09.724Z,7.85
2018-04-18T10:32:19.194Z,6.70
2018-04-18T10:35:29.592Z,5.97
2018-04-18T10:38:39.043Z,5.07
2018-04-18T10:41:48.497Z,5.57
2018-04-18T10:44:57.813Z,3.90
2018-04-18T10:48:08.083Z,5.50
2018-04-18T10:51:17.540Z,6.97
2018-04-18T10:54:26.867Z,5.87
2018-04-18T10:57:36.347Z,5.65
2018-04-18T11:00:46.348Z,6.18
2018-04-18T11:03:55.859Z,6.85
2018-04-18T11:07:05.321Z,6.60
2018-04-18T11:10:14.840Z,8.10
2018-04-18T11:13:24.143Z,7.50
2018-04-18T11:16:33.433Z,8.05
2018-04-18T11:19:43.025Z,5.18
2018-04-18T11:22:53.687Z,4.40
2018-04-18T11:26:03.065Z,5.30
2018-04-18T11:29:12.573Z,5.28
2018-04-18T11:32:22.099Z,5.07
2018-04-18T11:35:32.412Z,5.22
2018-04-18T11:38:41.756Z,5.68
2018-04-18T11:41:51.957Z,5.22
2018-04-18T11:45:02.119Z,6.57
2018-04-18T11:48:11.361Z,4.87
2018-04-18T11:51:20.744Z,6.18
2018-04-18T11:54:30.191Z,7.45
2018-04-18T11:57:39.667Z,6.15
2018-04-18T12:00:49.182Z,7.68
2018-04-18T12:03:59.262Z,6.40
2018-04-18T12:07:08.603Z,6.10
2018-04-18T12:10:18.979Z,5.75
2018-04-18T12:13:28.340Z,5.28
2018-04-18T12:16:37.676Z,5.50
2018-04-18T12:19:47.836Z,6.37
2018-04-18T12:22:57.215Z,9.18
2018-04-18T12:26:06.495Z,7.65
2018-04-18T12:29:15.938Z,10.82
2018-04-18T12:32:25.399Z,7.40
2018-04-18T12:35:35.524Z,9.27
2018-04-18T12:38:45.940Z,8.48
2018-04-18T12:41:56.163Z,12.13
2018-04-18T12:45:09.644Z,10.70
2018-04-18T12:48:18.902Z,11.35
2018-04-18T12:51:28.299Z,7.85
2018-04-18T12:54:37.684Z,9.40
2018-04-18T12:57:47.736Z,11.50
2018-04-18T13:00:57.568Z,9.02
2018-04-18T13:04:07.007Z,9.05
2018-04-18T13:07:16.416Z,10.85
2018-04-18T13:10:26.428Z,9.27
2018-04-18T13:13:35.716Z,10.35
2018-04-18T13:16:45.180Z,12.00
2018-04-18T13:19:54.711Z,13.20
2018-04-18T13:23:04.796Z,11.32
2018-04-18T13:26:14.166Z,14.63
2018-04-18T13:29:23.523Z,13.20
2018-04-18T13:32:33.027Z,13.82
2018-04-18T13:35:42.394Z,15.80
2018-04-18T13:38:51.885Z,13.27
2018-04-18T13:42:01.190Z,12.48
2018-04-18T13:45:11.467Z,14.98
2018-04-18T13:48:21.143Z,11.30
2018-04-18T13:51:30.599Z,10.85
2018-04-18T13:54:40.104Z,10.60
2018-04-18T13:57:49.519Z,11.98
2018-04-18T14:00:59.039Z,10.77
2018-04-18T14:04:08.376Z,10.95
2018-04-18T14:07:17.773Z,15.63
2018-04-18T14:10:28.338Z,11.77
2018-04-18T14:13:38.189Z,13.90
2018-04-18T14:16:48.335Z,11.95
2018-04-18T14:19:58.403Z,15.30
2018-04-18T14:23:08.677Z,15.43
2018-04-18T14:26:18.030Z,12.18
2018-04-18T14:29:27.476Z,11.30
2018-04-18T14:32:36.972Z,15.52
2018-04-18T14:35:46.339Z,12.57
2018-04-18T14:38:55.863Z,14.10
2018-04-18T14:42:05.386Z,12.77
2018-04-18T14:45:14.836Z,12.57
2018-04-18T14:48:25.025Z,13.00
2018-04-18T14:51:34.428Z,13.02
2018-04-18T14:54:43.818Z,11.20
2018-04-18T14:57:53.665Z,14.98
2018-04-18T15:01:03.227Z,14.82
2018-04-18T15:04:12.595Z,12.63
2018-04-18T15:07:22.792Z,13.48
2018-04-18T15:10:32.207Z,13.05
2018-04-18T15:13:41.601Z,15.07
2018-04-18T15:16:51.309Z,11.93
2018-04-18T15:20:00.705Z,12.23
2018-04-18T15:23:10.835Z,13.80
2018-04-18T15:26:20.216Z,10.93
2018-04-18T15:29:29.755Z,10.40
2018-04-18T15:32:40.134Z,10.23
2018-04-18T15:35:49.420Z,9.55
2018-04-18T15:38:58.786Z,11.60
2018-04-18T15:42:09.037Z,9.00
2018-04-18T15:45:18.352Z,11.15
2018-04-18T15:48:27.903Z,10.25
2018-04-18T15:51:37.370Z,10.35
2018-04-18T15:54:47.159Z,9.48
2018-04-18T15:57:56.619Z,8.82
2018-04-18T16:01:05.962Z,9.32
2018-04-18T16:04:15.840Z,11.60
2018-04-18T16:07:25.378Z,12.30
2018-04-18T16:10:35.270Z,9.85
2018-04-18T16:13:44.671Z,10.95
2018-04-18T16:16:53.985Z,10.00
2018-04-18T16:20:03.429Z,10.68
2018-04-18T16:23:13.366Z,9.57
2018-04-18T16:26:22.733Z,10.82
2018-04-18T16:29:45.038Z,11.18
2018-04-18T16:32:55.197Z,11.75
2018-04-18T16:36:04.510Z,9.82
2018-04-18T16:39:14.802Z,8.90
2018-04-18T16:42:24.243Z,9.10
2018-04-18T16:45:33.760Z,9.15
2018-04-18T16:48:47.341Z,9.13
2018-04-18T16:51:56.738Z,10.32
2018-04-18T16:55:06.221Z,9.38
2018-04-18T16:58:15.685Z,15.18
2018-04-18T17:01:24.981Z,21.58
2018-04-18T17:04:34.463Z,81.90
2018-04-18T17:07:43.892Z,81.90
2018-04-18T17:10:53.412Z,39.28
2018-04-18T17:14:02.865Z,23.02
2018-04-18T17:17:12.388Z,23.62
2018-04-18T17:20:21.786Z,13.05
2018-04-18T17:23:31.631Z,12.82
2018-04-18T17:26:41.548Z,11.70
2018-04-18T17:29:50.833Z,11.88
2018-04-18T17:33:00.242Z,11.52
2018-04-18T17:36:10.211Z,9.35
2018-04-18T17:39:19.863Z,10.65
2018-04-18T17:42:30.093Z,10.63
2018-04-18T17:45:40.251Z,10.48
2018-04-18T17:48:49.779Z,12.45
2018-04-18T17:52:00.541Z,11.55
2018-04-18T17:55:10.427Z,11.88
2018-04-18T17:58:19.920Z,12.07
2018-04-18T18:01:29.072Z,11.70
2018-04-18T18:04:38.556Z,11.77
2018-04-18T18:07:48.700Z,11.95
2018-04-18T18:10:58.025Z,12.37
2018-04-18T18:14:07.472Z,11.45
2018-04-18T18:17:17.386Z,11.75
2018-04-18T18:20:31.354Z,11.35
2018-04-18T18:23:41.178Z,10.98
2018-04-18T18:26:50.843Z,11.12
2018-04-18T18:30:00.207Z,10.05
2018-04-18T18:33:09.479Z,10.88
2018-04-18T18:36:19.423Z,12.18
2018-04-18T18:39:29.303Z,12.77
2018-04-18T18:42:38.593Z,12.20
2018-04-18T18:45:48.215Z,11.18
2018-04-18T18:48:58.314Z,12.02
2018-04-18T18:52:07.676Z,12.27
2018-04-18T18:55:17.015Z,12.82
2018-04-18T18:58:26.893Z,12.75
2018-04-18T19:01:36.756Z,13.00
2018-04-18T19:04:46.220Z,13.02
2018-04-18T19:07:56.389Z,13.65
2018-04-18T19:11:06.700Z,14.57
2018-04-18T19:14:16.531Z,14.87
2018-04-18T19:17:27.701Z,13.98
2018-04-18T19:20:38.106Z,14.55
2018-04-18T19:23:51.448Z,15.10
2018-04-18T19:27:00.755Z,15.43
2018-04-18T19:30:10.066Z,14.95
2018-04-18T19:33:20.045Z,14.87
2018-04-18T19:36:30.193Z,16.35
2018-04-18T19:39:40.461Z,17.08
2018-04-18T19:42:50.692Z,17.25
2018-04-18T19:46:00.573Z,16.73
2018-04-18T19:49:10.977Z,17.23
2018-04-18T19:52:21.324Z,18.12
2018-04-18T19:55:31.424Z,17.15
2018-04-18T19:58:41.619Z,17.77
2018-04-18T20:01:52.015Z,19.33
2018-04-18T20:05:02.383Z,20.23
2018-04-18T20:08:12.146Z,19.62
2018-04-18T20:11:23.348Z,19.00
2018-04-18T20:14:32.878Z,19.00
2018-04-18T20:17:42.724Z,20.75
2018-04-18T20:20:52.556Z,20.25
2018-04-18T20:24:02.476Z,18.08
2018-04-18T20:27:11.885Z,18.98
2018-04-18T20:30:22.132Z,23.27
2018-04-18T20:33:31.989Z,20.58
2018-04-18T20:36:53.745Z,21.52
2018-04-18T20:40:03.950Z,19.27
2018-04-18T20:43:14.342Z,22.35
2018-04-18T20:46:24.479Z,21.12
2018-04-18T20:49:34.322Z,21.48
2018-04-18T20:52:43.603Z,22.80
2018-04-18T20:55:53.660Z,20.92
2018-04-18T20:59:03.126Z,23.80
2018-04-18T21:02:12.972Z,21.40
2018-04-18T21:05:23.124Z,23.17
2018-04-18T21:08:32.626Z,22.25
2018-04-18T21:11:43.089Z,21.85
2018-04-18T21:14:52.819Z,23.65
2018-04-18T21:18:03.682Z,23.83
2018-04-18T21:21:12.991Z,23.23
2018-04-18T21:24:22.327Z,21.58
2018-04-18T21:27:31.646Z,23.73
2018-04-18T21:30:41.115Z,23.00
2018-04-18T21:33:50.856Z,24.23
2018-04-18T21:37:01.135Z,23.62
2018-04-18T21:40:10.815Z,23.77
2018-04-18T21:43:20.292Z,24.00
2018-04-18T21:46:29.687Z,25.27
2018-04-18T21:49:43.299Z,24.52
2018-04-18T21:52:54.514Z,24.67
2018-04-18T21:56:04.060Z,24.35
2018-04-18T21:59:14.209Z,24.52
2018-04-18T22:02:24.039Z,24.63
2018-04-18T22:05:34.265Z,25.42
2018-04-18T22:08:43.768Z,26.17
2018-04-18T22:11:54.042Z,25.27
2018-04-18T22:15:03.439Z,25.65
2018-04-18T22:18:13.072Z,24.77
2018-04-18T22:21:23.318Z,25.30
2018-04-18T22:24:33.632Z,27.08
2018-04-18T22:27:44.178Z,24.75
2018-04-18T22:40:49.680Z,24.12
2018-04-18T22:47:38.620Z,27.00
2018-04-18T22:50:48.534Z,27.73
2018-04-18T22:53:58.456Z,28.35
2018-04-18T22:57:07.821Z,27.75
2018-04-18T23:00:22.620Z,27.67
2018-04-18T23:03:32.397Z,26.73
2018-04-18T23:06:42.708Z,28.40
2018-04-18T23:09:52.092Z,27.25
2018-04-18T23:13:03.649Z,27.55
2018-04-18T23:16:13.469Z,26.95
2018-04-18T23:19:22.913Z,29.98
2018-04-18T23:22:35.150Z,28.50
2018-04-18T23:25:45.310Z,29.00
2018-04-18T23:28:54.908Z,28.02
2018-04-18T23:32:05.205Z,28.57
2018-04-18T23:35:15.260Z,27.85
2018-04-18T23:38:24.851Z,29.40
2018-04-18T23:41:35.106Z,29.02
2018-04-18T23:44:45.024Z,29.80
2018-04-18T23:47:55.264Z,30.40
2018-04-18T23:51:05.739Z,31.05
2018-04-18T23:54:15.235Z,31.47
2018-04-18T23:57:24.592Z,31.00
